16:15
Airports
Links
Donate
Help keep this website running!
PayPal
Bitcoin
METAR
EDLP 241550Z 08014KT 9999 FEW040 00/M11 Q1026
Current Weather Conditions at EDLP
VFR 15:50:00 24-02-18
Altimeter:30.30 hg
Temp:0.0°c 32°f
Dew point:-11.0°c 12°f
Wind:14 knots, 16.1 mph, 7 m/s, from 80°
Visibility:6.21 statute miles
4000(FEW) A few
Past METAR reports
VFR 15:20:00 24-02-18
Altimeter:30.30 hg
Temp:0.0°c 32°f
Dew point:-10.0°c 14°f
Wind:13 knots, 15 mph, 7 m/s, from 90°
Visibility:6.21 statute miles
4000(FEW) A few
EDLP 241520Z 09013KT 9999 FEW040 00/M10 Q1026
VFR 14:50:00 24-02-18
Altimeter:30.30 hg
Temp:0.0°c 32°f
Dew point:-9.0°c 16°f
Wind:13 knots, 15 mph, 7 m/s, from 90°
Visibility:6.21 statute miles
3600(FEW) A few
EDLP 241450Z 09013KT 9999 FEW036 00/M09 Q1026
VFR 14:20:00 24-02-18
Altimeter:30.30 hg
Temp:0.0°c 32°f
Dew point:-9.0°c 16°f
Wind:14 knots, 16.1 mph, 7 m/s, from 90°
Visibility:6.21 statute miles
3600(FEW) A few
EDLP 241420Z 09014KT 9999 FEW036 M00/M09 Q1026
VFR 13:50:00 24-02-18
Altimeter:30.30 hg
Temp:0.0°c 32°f
Dew point:-7.0°c 19°f
Wind:13 knots, 15 mph, 7 m/s, from 100°
Visibility:6.21 statute miles
3300(BKN) Broken
EDLP 241350Z 10013KT 9999 BKN033 00/M07 Q1026
VFR 13:20:00 24-02-18
Altimeter:30.30 hg
Temp:-1.0°c 30°f
Dew point:-7.0°c 19°f
Wind:14 knots, 16.1 mph, 7 m/s, from 80°
Visibility:6.21 statute miles
3100(BKN) Broken
EDLP 241320Z 08014KT 9999 BKN031 M01/M07 Q1026
MVFR 12:50:00 24-02-18
Altimeter:30.30 hg
Temp:-1.0°c 30°f
Dew point:-6.0°c 21°f
Wind:13 knots, 15 mph, 7 m/s, from 80°
Visibility:6.21 statute miles
2600(BKN) Broken
EDLP 241250Z 08013KT 9999 BKN026 M01/M06 Q1026
TAF
TAF EDLP 241100Z 2412/2512 09011KT 9999 SCT025 TEMPO 2412/2419 10015G25KT
Forecast at EDLP
12:00 24-02-18 to 12:00 25-02-18
Wind:11 Knots from 90°
Visibility:6.21 statute miles
2500SCT Scattered
TEMPO 12:00 24-02-18 to 19:00 24-02-18
Wind:15 Knots from 100°